sensor_id;sensor_type;location;lat;lon;timestamp;pressure;altitude;pressure_sealevel;temperature;humidity
44675;BME280;30388;52.038;-1.478;2023-04-25T00:01:37;64975.39;;;3.20;100.00
44675;BME280;30388;52.038;-1.478;2023-04-25T00:04:05;65009.92;;;3.42;100.00
44675;BME280;30388;52.038;-1.478;2023-04-25T00:06:34;65011.55;;;3.43;100.00
44675;BME280;30388;52.038;-1.478;2023-04-25T00:09:01;65044.36;;;3.59;100.00
44675;BME280;30388;52.038;-1.478;2023-04-25T00:11:29;65026.00;;;3.84;100.00
44675;BME280;30388;52.038;-1.478;2023-04-25T00:13:57;64959.30;;;2.99;100.00
44675;BME280;30388;52.038;-1.478;2023-04-25T00:16:24;64986.00;;;3.34;100.00
44675;BME280;30388;52.038;-1.478;2023-04-25T00:18:52;65014.88;;;3.21;100.00
44675;BME280;30388;52.038;-1.478;2023-04-25T00:21:20;65066.23;;;3.86;100.00
44675;BME280;30388;52.038;-1.478;2023-04-25T00:23:48;65086.32;;;4.12;100.00
44675;BME280;30388;52.038;-1.478;2023-04-25T00:26:15;65123.46;;;4.37;100.00
44675;BME280;30388;52.038;-1.478;2023-04-25T00:28:42;65151.19;;;4.50;100.00
44675;BME280;30388;52.038;-1.478;2023-04-25T00:31:10;65136.09;;;4.31;100.00
44675;BME280;30388;52.038;-1.478;2023-04-25T00:33:37;65142.79;;;4.40;100.00
44675;BME280;30388;52.038;-1.478;2023-04-25T00:36:05;65151.19;;;4.50;100.00
44675;BME280;30388;52.038;-1.478;2023-04-25T00:38:33;65181.81;;;4.90;100.00
44675;BME280;30388;52.038;-1.478;2023-04-25T00:41:00;65168.36;;;4.72;100.00
44675;BME280;30388;52.038;-1.478;2023-04-25T00:43:30;65201.83;;;4.66;100.00
44675;BME280;30388;52.038;-1.478;2023-04-25T00:46:00;65166.18;;;4.20;100.00
44675;BME280;30388;52.038;-1.478;2023-04-25T00:48:27;65238.27;;;4.85;100.00
44675;BME280;30388;52.038;-1.478;2023-04-25T00:50:57;65220.64;;;4.90;100.00
44675;BME280;30388;52.038;-1.478;2023-04-25T00:53:26;65213.76;;;4.81;100.00
44675;BME280;30388;52.038;-1.478;2023-04-25T00:55:53;65215.69;;;4.83;100.00
44675;BME280;30388;52.038;-1.478;2023-04-25T00:58:21;65224.05;;;4.94;100.00
44675;BME280;30388;52.038;-1.478;2023-04-25T01:00:50;65142.22;;;3.90;100.00
44675;BME280;30388;52.038;-1.478;2023-04-25T01:03:18;65223.30;;;4.93;100.00
44675;BME280;30388;52.038;-1.478;2023-04-25T01:05:46;65181.43;;;4.40;100.00
44675;BME280;30388;52.038;-1.478;2023-04-25T01:08:14;65190.40;;;4.51;100.00
44675;BME280;30388;52.038;-1.478;2023-04-25T01:10:41;65165.10;;;4.41;100.00
44675;BME280;30388;52.038;-1.478;2023-04-25T01:13:08;65151.68;;;4.23;100.00
44675;BME280;30388;52.038;-1.478;2023-04-25T01:15:36;65149.08;;;4.20;100.00
44675;BME280;30388;52.038;-1.478;2023-04-25T01:18:04;65169.71;;;4.25;100.00
44675;BME280;30388;52.038;-1.478;2023-04-25T01:20:33;65129.85;;;4.23;100.00
44675;BME280;30388;52.038;-1.478;2023-04-25T01:23:01;65203.54;;;4.90;100.00
44675;BME280;30388;52.038;-1.478;2023-04-25T01:25:29;65179.73;;;4.86;100.00
44675;BME280;30388;52.038;-1.478;2023-04-25T01:27:57;65161.14;;;4.62;100.00
44675;BME280;30388;52.038;-1.478;2023-04-25T01:30:26;65170.05;;;4.47;100.00
44675;BME280;30388;52.038;-1.478;2023-04-25T01:32:55;65162.12;;;4.16;100.00
44675;BME280;30388;52.038;-1.478;2023-04-25T01:35:23;65168.83;;;4.24;100.00
44675;BME280;30388;52.038;-1.478;2023-04-25T01:37:51;65205.97;;;4.71;100.00
44675;BME280;30388;52.038;-1.478;2023-04-25T01:40:19;65191.22;;;4.25;100.00
44675;BME280;30388;52.038;-1.478;2023-04-25T01:42:47;65204.59;;;4.42;100.00
44675;BME280;30388;52.038;-1.478;2023-04-25T01:45:14;65171.23;;;4.27;100.00
44675;BME280;30388;52.038;-1.478;2023-04-25T01:47:42;65216.54;;;4.84;100.00
44675;BME280;30388;52.038;-1.478;2023-04-25T01:50:10;65212.73;;;4.79;100.00
44675;BME280;30388;52.038;-1.478;2023-04-25T01:52:37;65188.42;;;4.49;100.00
44675;BME280;30388;52.038;-1.478;2023-04-25T01:55:06;65181.50;;;4.39;100.00
44675;BME280;30388;52.038;-1.478;2023-04-25T01:57:33;65147.02;;;3.96;100.00
44675;BME280;30388;52.038;-1.478;2023-04-25T02:00:03;65103.03;;;3.62;100.00
44675;BME280;30388;52.038;-1.478;2023-04-25T02:02:31;65070.99;;;3.47;100.00
44675;BME280;30388;52.038;-1.478;2023-04-25T02:04:58;65169.51;;;4.25;100.00
44675;BME280;30388;52.038;-1.478;2023-04-25T02:07:26;65216.02;;;4.83;100.00
44675;BME280;30388;52.038;-1.478;2023-04-25T02:09:54;65234.77;;;5.08;100.00
44675;BME280;30388;52.038;-1.478;2023-04-25T02:12:21;65164.49;;;4.18;100.00
44675;BME280;30388;52.038;-1.478;2023-04-25T02:14:49;65139.56;;;4.36;100.00
44675;BME280;30388;52.038;-1.478;2023-04-25T02:17:16;65150.35;;;4.22;100.00
44675;BME280;30388;52.038;-1.478;2023-04-25T02:19:44;65068.75;;;3.45;100.00
44675;BME280;30388;52.038;-1.478;2023-04-25T02:22:11;65134.28;;;4.27;100.00
44675;BME280;30388;52.038;-1.478;2023-04-25T02:24:38;65113.28;;;4.02;100.00
44675;BME280;30388;52.038;-1.478;2023-04-25T02:27:06;65151.21;;;4.50;100.00
44675;BME280;30388;52.038;-1.478;2023-04-25T02:29:33;65199.97;;;4.86;100.00
44675;BME280;30388;52.038;-1.478;2023-04-25T02:32:00;65142.72;;;4.39;100.00
44675;BME280;30388;52.038;-1.478;2023-04-25T02:34:28;65090.13;;;3.72;100.00
44675;BME280;30388;52.038;-1.478;2023-04-25T02:36:55;65045.39;;;3.37;100.00
44675;BME280;30388;52.038;-1.478;2023-04-25T02:39:23;65084.99;;;3.88;100.00
44675;BME280;30388;52.038;-1.478;2023-04-25T02:41:50;64984.80;;;2.83;100.00
44675;BME280;30388;52.038;-1.478;2023-04-25T02:44:19;65053.03;;;3.47;100.00
44675;BME280;30388;52.038;-1.478;2023-04-25T02:46:46;65005.68;;;3.09;100.00
44675;BME280;30388;52.038;-1.478;2023-04-25T02:49:13;64926.71;;;2.08;100.00
44675;BME280;30388;52.038;-1.478;2023-04-25T02:51:40;64996.05;;;2.97;100.00
44675;BME280;30388;52.038;-1.478;2023-04-25T02:54:08;64945.19;;;2.59;100.00
44675;BME280;30388;52.038;-1.478;2023-04-25T02:56:35;65008.19;;;3.12;100.00
44675;BME280;30388;52.038;-1.478;2023-04-25T02:59:03;65027.54;;;3.37;100.00
44675;BME280;30388;52.038;-1.478;2023-04-25T03:01:30;65064.83;;;3.84;100.00
44675;BME280;30388;52.038;-1.478;2023-04-25T03:03:58;64998.75;;;3.01;100.00
44675;BME280;30388;52.038;-1.478;2023-04-25T03:06:25;64981.31;;;2.78;100.00
44675;BME280;30388;52.038;-1.478;2023-04-25T03:08:53;65006.58;;;3.10;100.00
44675;BME280;30388;52.038;-1.478;2023-04-25T03:11:20;65006.43;;;2.88;100.00
44675;BME280;30388;52.038;-1.478;2023-04-25T03:13:47;65035.41;;;3.25;100.00
44675;BME280;30388;52.038;-1.478;2023-04-25T03:16:15;65013.11;;;2.97;100.00
44675;BME280;30388;52.038;-1.478;2023-04-25T03:18:42;65055.89;;;3.51;100.00
44675;BME280;30388;52.038;-1.478;2023-04-25T03:21:10;64906.15;;;1.83;100.00
44675;BME280;30388;52.038;-1.478;2023-04-25T03:23:37;64943.51;;;2.30;100.00
44675;BME280;30388;52.038;-1.478;2023-04-25T03:26:04;64992.46;;;2.92;100.00
44675;BME280;30388;52.038;-1.478;2023-04-25T03:28:32;65066.58;;;3.65;100.00
44675;BME280;30388;52.038;-1.478;2023-04-25T03:30:59;65105.04;;;3.91;100.00
44675;BME280;30388;52.038;-1.478;2023-04-25T03:33:27;65006.90;;;2.88;100.00
44675;BME280;30388;52.038;-1.478;2023-04-25T03:35:54;65005.27;;;2.86;100.00
44675;BME280;30388;52.038;-1.478;2023-04-25T03:38:22;64922.44;;;2.52;100.00
44675;BME280;30388;52.038;-1.478;2023-04-25T03:40:50;64908.94;;;2.35;100.00
44675;BME280;30388;52.038;-1.478;2023-04-25T03:43:17;64858.49;;;1.71;100.00
44675;BME280;30388;52.038;-1.478;2023-04-25T03:45:45;64810.10;;;1.10;100.00
44675;BME280;30388;52.038;-1.478;2023-04-25T03:48:12;64820.11;;;1.22;100.00
44675;BME280;30388;52.038;-1.478;2023-04-25T03:50:41;64793.30;;;1.09;100.00
44675;BME280;30388;52.038;-1.478;2023-04-25T03:53:09;64905.47;;;2.09;100.00
44675;BME280;30388;52.038;-1.478;2023-04-25T03:55:36;64929.22;;;2.11;100.00
44675;BME280;30388;52.038;-1.478;2023-04-25T03:58:03;64915.70;;;1.95;100.00
44675;BME280;30388;52.038;-1.478;2023-04-25T04:00:31;64889.25;;;1.88;100.00
44675;BME280;30388;52.038;-1.478;2023-04-25T04:02:58;64931.74;;;2.15;100.00
44675;BME280;30388;52.038;-1.478;2023-04-25T04:05:26;64943.88;;;2.57;100.00
44675;BME280;30388;52.038;-1.478;2023-04-25T04:07:54;65017.42;;;3.24;100.00
44675;BME280;30388;52.038;-1.478;2023-04-25T04:10:21;65053.46;;;3.48;100.00
44675;BME280;30388;52.038;-1.478;2023-04-25T04:12:48;64922.94;;;1.82;100.00
44675;BME280;30388;52.038;-1.478;2023-04-25T04:15:16;64949.13;;;2.36;100.00
44675;BME280;30388;52.038;-1.478;2023-04-25T04:17:43;64914.25;;;1.93;100.00
44675;BME280;30388;52.038;-1.478;2023-04-25T04:20:10;64924.98;;;2.07;100.00
44675;BME280;30388;52.038;-1.478;2023-04-25T04:22:39;64944.56;;;2.32;100.00
44675;BME280;30388;52.038;-1.478;2023-04-25T04:25:07;64900.77;;;1.76;100.00
44675;BME280;30388;52.038;-1.478;2023-04-25T04:27:34;64968.66;;;2.62;100.00
44675;BME280;30388;52.038;-1.478;2023-04-25T04:30:02;64978.05;;;2.74;100.00
44675;BME280;30388;52.038;-1.478;2023-04-25T04:32:30;64970.18;;;2.63;100.00
44675;BME280;30388;52.038;-1.478;2023-04-25T04:34:57;64919.09;;;1.99;100.00
44675;BME280;30388;52.038;-1.478;2023-04-25T04:37:25;64925.12;;;2.34;100.00
44675;BME280;30388;52.038;-1.478;2023-04-25T04:39:52;64950.52;;;2.66;100.00
44675;BME280;30388;52.038;-1.478;2023-04-25T04:42:20;64889.45;;;1.88;100.00
44675;BME280;30388;52.038;-1.478;2023-04-25T04:44:47;64922.76;;;2.03;100.00
44675;BME280;30388;52.038;-1.478;2023-04-25T04:47:15;64908.31;;;2.34;100.00
44675;BME280;30388;52.038;-1.478;2023-04-25T04:49:42;64926.25;;;2.58;100.00
44675;BME280;30388;52.038;-1.478;2023-04-25T04:52:09;64915.86;;;1.95;100.00
44675;BME280;30388;52.038;-1.478;2023-04-25T04:54:37;64941.38;;;2.53;100.00
44675;BME280;30388;52.038;-1.478;2023-04-25T04:57:04;64917.41;;;2.45;100.00
44675;BME280;30388;52.038;-1.478;2023-04-25T04:59:32;64927.11;;;2.58;100.00
44675;BME280;30388;52.038;-1.478;2023-04-25T05:01:59;64890.31;;;2.11;100.00
44675;BME280;30388;52.038;-1.478;2023-04-25T05:04:26;64957.66;;;2.48;100.00
44675;BME280;30388;52.038;-1.478;2023-04-25T05:06:54;64939.98;;;2.26;100.00
44675;BME280;30388;52.038;-1.478;2023-04-25T05:09:21;64985.15;;;2.84;100.00
44675;BME280;30388;52.038;-1.478;2023-04-25T05:11:49;64955.69;;;2.46;100.00
44675;BME280;30388;52.038;-1.478;2023-04-25T05:14:16;64976.78;;;2.72;100.00
44675;BME280;30388;52.038;-1.478;2023-04-25T05:16:44;64974.30;;;2.69;100.00
44675;BME280;30388;52.038;-1.478;2023-04-25T05:19:11;64941.74;;;2.28;100.00
44675;BME280;30388;52.038;-1.478;2023-04-25T05:21:39;64932.49;;;2.43;100.00
44675;BME280;30388;52.038;-1.478;2023-04-25T05:24:06;65014.15;;;3.20;100.00
44675;BME280;30388;52.038;-1.478;2023-04-25T05:26:34;64915.27;;;2.43;100.00
44675;BME280;30388;52.038;-1.478;2023-04-25T05:29:01;65021.45;;;3.30;100.00
44675;BME280;30388;52.038;-1.478;2023-04-25T05:31:28;65008.62;;;3.14;100.00
44675;BME280;30388;52.038;-1.478;2023-04-25T05:33:56;64930.47;;;2.14;100.00
44675;BME280;30388;52.038;-1.478;2023-04-25T05:36:23;64952.45;;;2.42;100.00
44675;BME280;30388;52.038;-1.478;2023-04-25T05:38:51;65035.16;;;3.47;100.00
44675;BME280;30388;52.038;-1.478;2023-04-25T05:41:19;65040.71;;;3.31;100.00
44675;BME280;30388;52.038;-1.478;2023-04-25T05:43:48;65114.16;;;4.03;100.00
44675;BME280;30388;52.038;-1.478;2023-04-25T05:46:15;65025.46;;;3.12;100.00
44675;BME280;30388;52.038;-1.478;2023-04-25T05:48:43;65084.08;;;3.87;100.00
44675;BME280;30388;52.038;-1.478;2023-04-25T05:51:10;65087.70;;;3.70;100.00
44675;BME280;30388;52.038;-1.478;2023-04-25T05:53:37;65058.37;;;3.54;100.00
44675;BME280;30388;52.038;-1.478;2023-04-25T05:56:05;65125.10;;;4.17;100.00
44675;BME280;30388;52.038;-1.478;2023-04-25T05:58:32;65112.49;;;4.02;100.00
44675;BME280;30388;52.038;-1.478;2023-04-25T06:00:59;65121.79;;;4.13;100.00
44675;BME280;30388;52.038;-1.478;2023-04-25T06:03:27;65103.32;;;3.89;100.00
44675;BME280;30388;52.038;-1.478;2023-04-25T06:05:54;65054.76;;;3.28;100.00
44675;BME280;30388;52.038;-1.478;2023-04-25T06:08:22;65107.29;;;3.95;100.00
44675;BME280;30388;52.038;-1.478;2023-04-25T06:10:49;64903.04;;;1.78;100.00
44675;BME280;30388;52.038;-1.478;2023-04-25T06:13:16;64982.76;;;2.36;100.00
44675;BME280;30388;52.038;-1.478;2023-04-25T06:15:44;65014.58;;;2.98;100.00
44675;BME280;30388;52.038;-1.478;2023-04-25T06:18:11;65166.07;;;4.20;100.00
44675;BME280;30388;52.038;-1.478;2023-04-25T06:20:38;65224.84;;;4.95;100.00
44675;BME280;30388;52.038;-1.478;2023-04-25T06:23:06;65154.37;;;4.54;100.00
44675;BME280;30388;52.038;-1.478;2023-04-25T06:25:33;65150.03;;;4.48;100.00
44675;BME280;30388;52.038;-1.478;2023-04-25T06:28:00;65147.84;;;4.46;100.00
44675;BME280;30388;52.038;-1.478;2023-04-25T06:30:28;65126.77;;;4.41;100.00
44675;BME280;30388;52.038;-1.478;2023-04-25T06:32:55;65090.73;;;3.96;100.00
44675;BME280;30388;52.038;-1.478;2023-04-25T06:35:22;65212.77;;;5.29;100.00
44675;BME280;30388;52.038;-1.478;2023-04-25T06:37:50;65157.50;;;4.80;100.00
44675;BME280;30388;52.038;-1.478;2023-04-25T06:40:17;65204.13;;;5.17;100.00
44675;BME280;30388;52.038;-1.478;2023-04-25T06:42:44;65129.44;;;4.23;100.00
44675;BME280;30388;52.038;-1.478;2023-04-25T06:45:12;65159.38;;;5.05;100.00
44675;BME280;30388;52.038;-1.478;2023-04-25T06:47:39;65192.06;;;5.03;100.00
44675;BME280;30388;52.038;-1.478;2023-04-25T06:50:07;65216.41;;;5.07;100.00
44675;BME280;30388;52.038;-1.478;2023-04-25T06:52:34;65180.93;;;4.88;100.00
44675;BME280;30388;52.038;-1.478;2023-04-25T06:55:03;65203.52;;;5.17;100.00
44675;BME280;30388;52.038;-1.478;2023-04-25T06:57:30;65145.80;;;4.43;100.00
44675;BME280;30388;52.038;-1.478;2023-04-25T06:59:57;65078.87;;;4.03;100.00
44675;BME280;30388;52.038;-1.478;2023-04-25T07:02:25;65019.37;;;3.54;100.00
44675;BME280;30388;52.038;-1.478;2023-04-25T07:04:53;64977.80;;;3.23;100.00
44675;BME280;30388;52.038;-1.478;2023-04-25T07:07:20;65051.01;;;3.67;100.00
44675;BME280;30388;52.038;-1.478;2023-04-25T07:09:48;65039.23;;;3.79;100.00
44675;BME280;30388;52.038;-1.478;2023-04-25T07:12:15;65095.69;;;4.24;100.00
44675;BME280;30388;52.038;-1.478;2023-04-25T07:14:42;65033.57;;;3.72;100.00
44675;BME280;30388;52.038;-1.478;2023-04-25T07:17:10;64999.15;;;3.28;100.00
44675;BME280;30388;52.038;-1.478;2023-04-25T07:19:37;65038.28;;;3.77;100.00
44675;BME280;30388;52.038;-1.478;2023-04-25T07:22:04;65055.53;;;4.00;100.00
44675;BME280;30388;52.038;-1.478;2023-04-25T07:24:32;65021.07;;;3.78;100.00
44675;BME280;30388;52.038;-1.478;2023-04-25T07:26:59;65121.54;;;4.35;100.00
44675;BME280;30388;52.038;-1.478;2023-04-25T07:29:27;65154.65;;;5.00;100.00
44675;BME280;30388;52.038;-1.478;2023-04-25T07:31:55;65091.41;;;4.19;100.00
44675;BME280;30388;52.038;-1.478;2023-04-25T07:34:22;65068.36;;;3.90;100.00
44675;BME280;30388;52.038;-1.478;2023-04-25T07:36:49;65059.94;;;4.07;100.00
44675;BME280;30388;52.038;-1.478;2023-04-25T07:39:17;65055.54;;;4.22;100.00
44675;BME280;30388;52.038;-1.478;2023-04-25T07:41:44;65034.84;;;3.96;100.00
44675;BME280;30388;52.038;-1.478;2023-04-25T07:44:11;65110.65;;;4.43;100.00
44675;BME280;30388;52.038;-1.478;2023-04-25T07:46:39;65094.40;;;4.49;100.00
44675;BME280;30388;52.038;-1.478;2023-04-25T07:49:06;65134.67;;;4.75;100.00
44675;BME280;30388;52.038;-1.478;2023-04-25T07:51:33;65093.88;;;4.49;100.00
44675;BME280;30388;52.038;-1.478;2023-04-25T07:54:01;65118.42;;;4.53;100.00
44675;BME280;30388;52.038;-1.478;2023-04-25T07:56:28;65078.30;;;4.02;100.00
44675;BME280;30388;52.038;-1.478;2023-04-25T07:58:57;65140.76;;;4.82;100.00
44675;BME280;30388;52.038;-1.478;2023-04-25T08:01:24;65231.60;;;5.74;100.00
44675;BME280;30388;52.038;-1.478;2023-04-25T08:03:51;65287.32;;;5.97;100.00
44675;BME280;30388;52.038;-1.478;2023-04-25T08:06:18;65335.28;;;6.57;100.00
44675;BME280;30388;52.038;-1.478;2023-04-25T08:08:45;65294.91;;;5.84;100.00
44675;BME280;30388;52.038;-1.478;2023-04-25T08:11:19;65192.96;;;5.26;100.00
44675;BME280;30388;52.038;-1.478;2023-04-25T08:13:46;65170.46;;;5.18;100.00
44675;BME280;30388;52.038;-1.478;2023-04-25T08:16:13;65191.02;;;5.45;100.00
44675;BME280;30388;52.038;-1.478;2023-04-25T08:18:40;65215.58;;;5.77;100.00
44675;BME280;30388;52.038;-1.478;2023-04-25T08:21:08;65199.14;;;5.34;100.00
44675;BME280;30388;52.038;-1.478;2023-04-25T08:23:35;65183.51;;;4.91;100.00
44675;BME280;30388;52.038;-1.478;2023-04-25T08:26:02;65120.57;;;4.55;100.00
44675;BME280;30388;52.038;-1.478;2023-04-25T08:28:29;65163.34;;;4.88;100.00
44675;BME280;30388;52.038;-1.478;2023-04-25T08:30:57;65222.56;;;5.64;100.00
44675;BME280;30388;52.038;-1.478;2023-04-25T08:33:24;65196.22;;;5.07;100.00
44675;BME280;30388;52.038;-1.478;2023-04-25T08:35:52;65172.09;;;4.99;100.00
44675;BME280;30388;52.038;-1.478;2023-04-25T08:38:24;65181.16;;;5.34;100.00
44675;BME280;30388;52.038;-1.478;2023-04-25T08:40:52;65214.76;;;5.76;100.00
44675;BME280;30388;52.038;-1.478;2023-04-25T08:43:21;65216.73;;;5.56;100.00
44675;BME280;30388;52.038;-1.478;2023-04-25T08:45:53;65193.14;;;5.48;100.00
44675;BME280;30388;52.038;-1.478;2023-04-25T08:48:21;65197.90;;;5.32;100.00
44675;BME280;30388;52.038;-1.478;2023-04-25T08:51:02;65165.89;;;5.62;100.00
44675;BME280;30388;52.038;-1.478;2023-04-25T08:53:31;65187.22;;;5.40;100.00
44675;BME280;30388;52.038;-1.478;2023-04-25T08:56:00;65255.04;;;5.82;100.00
44675;BME280;30388;52.038;-1.478;2023-04-25T08:58:38;65242.40;;;5.88;100.00
44675;BME280;30388;52.038;-1.478;2023-04-25T09:01:06;65218.70;;;5.80;100.00
44675;BME280;30388;52.038;-1.478;2023-04-25T09:03:34;65219.84;;;5.37;100.00
44675;BME280;30388;52.038;-1.478;2023-04-25T09:06:02;65276.28;;;6.09;100.00
44675;BME280;30388;52.038;-1.478;2023-04-25T09:08:31;65368.43;;;6.77;100.00
44675;BME280;30388;52.038;-1.478;2023-04-25T09:11:00;65381.72;;;6.95;100.00
44675;BME280;30388;52.038;-1.478;2023-04-25T09:13:27;65392.18;;;7.08;100.00
44675;BME280;30388;52.038;-1.478;2023-04-25T09:15:56;65400.67;;;7.19;100.00
44675;BME280;30388;52.038;-1.478;2023-04-25T09:18:24;65441.15;;;7.70;100.00
44675;BME280;30388;52.038;-1.478;2023-04-25T09:20:53;65465.52;;;7.74;100.00
44675;BME280;30388;52.038;-1.478;2023-04-25T09:23:21;65469.17;;;7.56;100.00
44675;BME280;30388;52.038;-1.478;2023-04-25T09:25:53;65516.55;;;8.16;100.00
44675;BME280;30388;52.038;-1.478;2023-04-25T09:28:24;65520.85;;;8.01;100.00
44675;BME280;30388;52.038;-1.478;2023-04-25T09:30:55;65424.11;;;7.00;100.00
44675;BME280;30388;52.038;-1.478;2023-04-25T09:33:27;65308.28;;;6.50;100.00
44675;BME280;30388;52.038;-1.478;2023-04-25T09:36:02;65370.23;;;7.28;100.00
44675;BME280;30388;52.038;-1.478;2023-04-25T09:38:30;65362.38;;;6.92;100.00
44675;BME280;30388;52.038;-1.478;2023-04-25T09:40:58;65446.99;;;7.77;100.00
44675;BME280;30388;52.038;-1.478;2023-04-25T09:43:26;65423.41;;;7.47;100.00
44675;BME280;30388;52.038;-1.478;2023-04-25T09:45:54;65491.67;;;7.84;100.00
44675;BME280;30388;52.038;-1.478;2023-04-25T09:48:22;65464.62;;;7.49;100.00
44675;BME280;30388;52.038;-1.478;2023-04-25T09:51:04;65448.66;;;7.79;100.00
44675;BME280;30388;52.038;-1.478;2023-04-25T09:53:33;65424.67;;;7.48;100.00
44675;BME280;30388;52.038;-1.478;2023-04-25T09:56:04;65420.45;;;7.44;100.00
44675;BME280;30388;52.038;-1.478;2023-04-25T09:58:31;65561.37;;;8.72;100.00
44675;BME280;30388;52.038;-1.478;2023-04-25T10:01:01;65477.33;;;7.88;100.00
44675;BME280;30388;52.038;-1.478;2023-04-25T10:03:31;65396.20;;;7.61;100.00
44675;BME280;30388;52.038;-1.478;2023-04-25T10:06:00;65495.93;;;8.13;100.00
44675;BME280;30388;52.038;-1.478;2023-04-25T10:08:31;65539.88;;;8.45;100.00
44675;BME280;30388;52.038;-1.478;2023-04-25T10:11:00;65655.87;;;9.43;100.00
44675;BME280;30388;52.038;-1.478;2023-04-25T10:13:28;65802.83;;;10.85;100.00
44675;BME280;30388;52.038;-1.478;2023-04-25T10:15:56;65725.06;;;10.09;100.00
44675;BME280;30388;52.038;-1.478;2023-04-25T10:18:25;65644.16;;;9.29;100.00
44675;BME280;30388;52.038;-1.478;2023-04-25T10:20:54;65535.92;;;8.41;100.00
44675;BME280;30388;52.038;-1.478;2023-04-25T10:23:27;65552.11;;;8.61;100.00
44675;BME280;30388;52.038;-1.478;2023-04-25T10:25:55;65634.97;;;9.17;100.00
44675;BME280;30388;52.038;-1.478;2023-04-25T10:28:27;65608.06;;;8.83;100.00
44675;BME280;30388;52.038;-1.478;2023-04-25T10:30:59;65602.48;;;9.25;100.00
44675;BME280;30388;52.038;-1.478;2023-04-25T10:33:38;65596.83;;;9.67;100.00
44675;BME280;30388;52.038;-1.478;2023-04-25T10:36:11;65692.26;;;9.90;100.00
44675;BME280;30388;52.038;-1.478;2023-04-25T10:38:40;65690.58;;;10.14;100.00
44675;BME280;30388;52.038;-1.478;2023-04-25T10:41:10;65672.02;;;9.91;100.00
44675;BME280;30388;52.038;-1.478;2023-04-25T10:43:39;65652.46;;;9.88;100.00
44675;BME280;30388;52.038;-1.478;2023-04-25T10:46:15;65666.10;;;10.05;100.00
44675;BME280;30388;52.038;-1.478;2023-04-25T10:48:47;65684.48;;;10.28;100.00
44675;BME280;30388;52.038;-1.478;2023-04-25T10:51:18;65673.15;;;9.65;100.00
44675;BME280;30388;52.038;-1.478;2023-04-25T10:53:46;65645.01;;;9.30;100.00
44675;BME280;30388;52.038;-1.478;2023-04-25T10:56:17;65657.11;;;9.45;100.00
44675;BME280;30388;52.038;-1.478;2023-04-25T10:58:46;65699.48;;;9.77;100.00
44675;BME280;30388;52.038;-1.478;2023-04-25T11:01:15;65719.11;;;9.79;100.00
44675;BME280;30388;52.038;-1.478;2023-04-25T11:03:43;65758.59;;;10.29;100.00
44675;BME280;30388;52.038;-1.478;2023-04-25T11:06:22;65833.05;;;10.74;100.00
44675;BME280;30388;52.038;-1.478;2023-04-25T11:08:50;65732.99;;;10.18;100.00
44675;BME280;30388;52.038;-1.478;2023-04-25T11:11:18;65737.56;;;10.03;100.00
44675;BME280;30388;52.038;-1.478;2023-04-25T11:13:48;65654.84;;;9.42;100.00
44675;BME280;30388;52.038;-1.478;2023-04-25T11:16:15;65567.18;;;8.58;100.00
44675;BME280;30388;52.038;-1.478;2023-04-25T11:18:42;65627.72;;;9.07;100.00
44675;BME280;30388;52.038;-1.478;2023-04-25T11:21:10;65807.86;;;10.91;100.00
44675;BME280;30388;52.038;-1.478;2023-04-25T11:23:38;65920.63;;;11.85;100.00
44675;BME280;30388;52.038;-1.478;2023-04-25T11:26:05;65798.94;;;10.80;100.00
44675;BME280;30388;52.038;-1.478;2023-04-25T11:28:32;65819.82;;;11.06;100.00
44675;BME280;30388;52.038;-1.478;2023-04-25T11:30:59;65879.49;;;11.33;100.00
44675;BME280;30388;52.038;-1.478;2023-04-25T11:33:27;65899.78;;;12.08;100.00
44675;BME280;30388;52.038;-1.478;2023-04-25T11:35:55;66111.52;;;13.77;100.00
44675;BME280;30388;52.038;-1.478;2023-04-25T11:38:23;66214.15;;;14.57;100.00
44675;BME280;30388;52.038;-1.478;2023-04-25T11:40:52;65974.25;;;12.25;100.00
44675;BME280;30388;52.038;-1.478;2023-04-25T11:43:20;65887.95;;;11.93;100.00
44675;BME280;30388;52.038;-1.478;2023-04-25T11:45:48;65825.57;;;11.13;100.00
44675;BME280;30388;52.038;-1.478;2023-04-25T11:48:16;65875.12;;;11.76;100.00
44675;BME280;30388;52.038;-1.478;2023-04-25T11:50:44;65937.91;;;12.06;100.00
44675;BME280;30388;52.038;-1.478;2023-04-25T11:53:11;65976.74;;;12.07;100.00
44675;BME280;30388;52.038;-1.478;2023-04-25T11:55:38;65978.31;;;12.09;100.00
44675;BME280;30388;52.038;-1.478;2023-04-25T11:58:05;65839.68;;;10.83;100.00
44675;BME280;30388;52.038;-1.478;2023-04-25T12:00:32;65805.00;;;11.32;100.00
44675;BME280;30388;52.038;-1.478;2023-04-25T12:02:59;65829.24;;;11.41;100.00
44675;BME280;30388;52.038;-1.478;2023-04-25T12:05:27;65859.79;;;11.80;100.00
44675;BME280;30388;52.038;-1.478;2023-04-25T12:07:54;65982.09;;;13.07;100.00
44675;BME280;30388;52.038;-1.478;2023-04-25T12:10:21;65926.27;;;11.92;100.00
44675;BME280;30388;52.038;-1.478;2023-04-25T12:12:51;65945.22;;;12.16;100.00
44675;BME280;30388;52.038;-1.478;2023-04-25T12:15:23;65830.96;;;11.21;100.00
44675;BME280;30388;52.038;-1.478;2023-04-25T12:17:51;65788.76;;;10.66;100.00
44675;BME280;30388;52.038;-1.478;2023-04-25T12:20:20;65949.32;;;12.21;100.00
44675;BME280;30388;52.038;-1.478;2023-04-25T12:22:48;65911.42;;;11.95;100.00
44675;BME280;30388;52.038;-1.478;2023-04-25T12:25:35;65863.85;;;11.13;100.00
44675;BME280;30388;52.038;-1.478;2023-04-25T12:28:12;65816.37;;;11.02;100.00
44675;BME280;30388;52.038;-1.478;2023-04-25T12:30:56;65830.22;;;11.20;100.00
44675;BME280;30388;52.038;-1.478;2023-04-25T12:33:25;66099.21;;;13.61;100.00
44675;BME280;30388;52.038;-1.478;2023-04-25T12:35:52;66224.24;;;14.71;100.00
44675;BME280;30388;52.038;-1.478;2023-04-25T12:38:22;65963.06;;;12.38;100.00
44675;BME280;30388;52.038;-1.478;2023-04-25T12:40:50;65701.72;;;10.00;100.00
44675;BME280;30388;52.038;-1.478;2023-04-25T12:43:17;65647.62;;;9.33;100.00
44675;BME280;30388;52.038;-1.478;2023-04-25T12:45:44;65673.48;;;9.66;100.00
44675;BME280;30388;52.038;-1.478;2023-04-25T12:48:11;65830.13;;;11.19;100.00
44675;BME280;30388;52.038;-1.478;2023-04-25T12:50:38;65963.85;;;12.40;100.00
44675;BME280;30388;52.038;-1.478;2023-04-25T12:53:05;66067.12;;;13.21;100.00